sensor_id;sensor_type;location;lat;lon;timestamp;pressure;altitude;pressure_sealevel;temperature;humidity
30421;BME280;17218;54.070;10.012;2022-09-12T00:00:21;101626.25;;;11.62;100.00
30421;BME280;17218;54.070;10.012;2022-09-12T00:02:51;101619.34;;;11.59;100.00
30421;BME280;17218;54.070;10.012;2022-09-12T00:05:17;101622.78;;;11.53;100.00
30421;BME280;17218;54.070;10.012;2022-09-12T00:07:44;101628.81;;;11.46;100.00
30421;BME280;17218;54.070;10.012;2022-09-12T00:10:12;101621.88;;;11.45;100.00
30421;BME280;17218;54.070;10.012;2022-09-12T00:12:39;101623.59;;;11.43;100.00
30421;BME280;17218;54.070;10.012;2022-09-12T00:15:06;101621.88;;;11.39;100.00
30421;BME280;17218;54.070;10.012;2022-09-12T00:17:33;101613.22;;;11.37;100.00
30421;BME280;17218;54.070;10.012;2022-09-12T00:20:00;101621.88;;;11.39;100.00
30421;BME280;17218;54.070;10.012;2022-09-12T00:22:27;101619.25;;;11.36;100.00
30421;BME280;17218;54.070;10.012;2022-09-12T00:24:53;101613.22;;;11.38;100.00
30421;BME280;17218;54.070;10.012;2022-09-12T00:27:21;101610.63;;;11.38;100.00
30421;BME280;17218;54.070;10.012;2022-09-12T00:29:47;101617.53;;;11.35;100.00
30421;BME280;17218;54.070;10.012;2022-09-12T00:32:14;101611.47;;;11.34;100.00
30421;BME280;17218;54.070;10.012;2022-09-12T00:34:40;101607.97;;;11.30;100.00
30421;BME280;17218;54.070;10.012;2022-09-12T00:37:07;101617.47;;;11.27;100.00
30421;BME280;17218;54.070;10.012;2022-09-12T00:39:33;101615.75;;;11.26;100.00
30421;BME280;17218;54.070;10.012;2022-09-12T00:42:00;101614.88;;;11.24;100.00
30421;BME280;17218;54.070;10.012;2022-09-12T00:44:47;101607.94;;;11.18;100.00
30421;BME280;17218;54.070;10.012;2022-09-12T00:47:18;101613.13;;;11.18;100.00
30421;BME280;17218;54.070;10.012;2022-09-12T00:49:50;101601.00;;;11.15;100.00
30421;BME280;17218;54.070;10.012;2022-09-12T00:52:21;101611.38;;;11.15;100.00
30421;BME280;17218;54.070;10.012;2022-09-12T00:54:55;101606.19;;;11.11;100.00
30421;BME280;17218;54.070;10.012;2022-09-12T00:57:27;101604.44;;;11.09;100.00
30421;BME280;17218;54.070;10.012;2022-09-12T00:59:58;101603.56;;;11.04;100.00
30421;BME280;17218;54.070;10.012;2022-09-12T01:02:28;101598.38;;;11.03;100.00
30421;BME280;17218;54.070;10.012;2022-09-12T01:04:55;101594.00;;;10.98;100.00
30421;BME280;17218;54.070;10.012;2022-09-12T01:07:21;101591.47;;;11.00;100.00
30421;BME280;17218;54.070;10.012;2022-09-12T01:09:48;101601.78;;;10.94;100.00
30421;BME280;17218;54.070;10.012;2022-09-12T01:12:15;101593.13;;;10.90;100.00
30421;BME280;17218;54.070;10.012;2022-09-12T01:14:42;101599.19;;;10.91;100.00
30421;BME280;17218;54.070;10.012;2022-09-12T01:17:12;101602.63;;;10.90;100.00
30421;BME280;17218;54.070;10.012;2022-09-12T01:20:16;101598.31;;;10.87;100.00
30421;BME280;17218;54.070;10.012;2022-09-12T01:23:07;101606.03;;;10.82;100.00
30421;BME280;17218;54.070;10.012;2022-09-12T01:25:40;101596.53;;;10.80;100.00
30421;BME280;17218;54.070;10.012;2022-09-12T01:28:32;101601.69;;;10.77;100.00
30421;BME280;17218;54.070;10.012;2022-09-12T01:31:07;101594.78;;;10.76;100.00
30421;BME280;17218;54.070;10.012;2022-09-12T01:33:59;101605.16;;;10.74;100.00
30421;BME280;17218;54.070;10.012;2022-09-12T01:36:36;101596.50;;;10.72;100.00
30421;BME280;17218;54.070;10.012;2022-09-12T01:39:13;101601.66;;;10.69;100.00
30421;BME280;17218;54.070;10.012;2022-09-12T01:41:48;101596.50;;;10.70;100.00
30421;BME280;17218;54.070;10.012;2022-09-12T01:44:24;101595.56;;;10.65;100.00
30421;BME280;17218;54.070;10.012;2022-09-12T01:46:59;101592.97;;;10.65;100.00
30421;BME280;17218;54.070;10.012;2022-09-12T01:49:31;101586.94;;;10.66;100.00
30421;BME280;17218;54.070;10.012;2022-09-12T01:52:05;101584.38;;;10.66;100.00
30421;BME280;17218;54.070;10.012;2022-09-12T01:54:39;101587.78;;;10.65;100.00
30421;BME280;17218;54.070;10.012;2022-09-12T01:57:11;101580.03;;;10.65;100.00
30421;BME280;17218;54.070;10.012;2022-09-12T01:59:42;101580.00;;;10.64;100.00
30421;BME280;17218;54.070;10.012;2022-09-12T02:02:15;101575.69;;;10.61;100.00
30421;BME280;17218;54.070;10.012;2022-09-12T02:04:45;101571.34;;;10.60;100.00
30421;BME280;17218;54.070;10.012;2022-09-12T02:07:19;101567.03;;;10.56;100.00
30421;BME280;17218;54.070;10.012;2022-09-12T02:09:49;101549.75;;;10.53;100.00
30421;BME280;17218;54.070;10.012;2022-09-12T02:12:22;101565.28;;;10.52;100.00
30421;BME280;17218;54.070;10.012;2022-09-12T02:14:52;101557.50;;;10.48;100.00
30421;BME280;17218;54.070;10.012;2022-09-12T02:17:23;101562.69;;;10.48;100.00
30421;BME280;17218;54.070;10.012;2022-09-12T02:19:52;101556.53;;;10.45;100.00
30421;BME280;17218;54.070;10.012;2022-09-12T02:22:22;101551.38;;;10.43;100.00
30421;BME280;17218;54.070;10.012;2022-09-12T02:24:53;101557.41;;;10.41;100.00
30421;BME280;17218;54.070;10.012;2022-09-12T02:27:23;101556.50;;;10.35;100.00
30421;BME280;17218;54.070;10.012;2022-09-12T02:29:52;101558.25;;;10.36;100.00
30421;BME280;17218;54.070;10.012;2022-09-12T02:32:27;101556.47;;;10.34;100.00
30421;BME280;17218;54.070;10.012;2022-09-12T02:34:58;101557.34;;;10.33;100.00
30421;BME280;17218;54.070;10.012;2022-09-12T02:37:36;101560.81;;;10.32;100.00
30421;BME280;17218;54.070;10.012;2022-09-12T02:40:09;101555.59;;;10.29;100.00
30421;BME280;17218;54.070;10.012;2022-09-12T02:42:36;101553.00;;;10.29;100.00
30421;BME280;17218;54.070;10.012;2022-09-12T02:45:04;101558.19;;;10.29;100.00
30421;BME280;17218;54.070;10.012;2022-09-12T02:47:35;101554.72;;;10.26;100.00
30421;BME280;17218;54.070;10.012;2022-09-12T02:50:05;101552.13;;;10.26;100.00
30421;BME280;17218;54.070;10.012;2022-09-12T02:52:32;101568.53;;;10.25;100.00
30421;BME280;17218;54.070;10.012;2022-09-12T02:55:00;101552.94;;;10.21;100.00
30421;BME280;17218;54.070;10.012;2022-09-12T02:57:28;101552.09;;;10.19;100.00
30421;BME280;17218;54.070;10.012;2022-09-12T02:59:58;101546.84;;;10.16;100.00
30421;BME280;17218;54.070;10.012;2022-09-12T03:02:30;101555.50;;;10.13;100.00
30421;BME280;17218;54.070;10.012;2022-09-12T03:05:18;101555.50;;;10.13;100.00
30421;BME280;17218;54.070;10.012;2022-09-12T03:08:03;101552.03;;;10.12;100.00
30421;BME280;17218;54.070;10.012;2022-09-12T03:10:41;101548.53;;;10.07;100.00
30421;BME280;17218;54.070;10.012;2022-09-12T03:13:19;101550.25;;;10.05;100.00
30421;BME280;17218;54.070;10.012;2022-09-12T03:15:56;101544.19;;;10.05;100.00
30421;BME280;17218;54.070;10.012;2022-09-12T03:18:36;101542.47;;;10.05;100.00
30421;BME280;17218;54.070;10.012;2022-09-12T03:21:12;101550.25;;;10.04;100.00
30421;BME280;17218;54.070;10.012;2022-09-12T03:23:55;101553.66;;;10.04;100.00
30421;BME280;17218;54.070;10.012;2022-09-12T03:26:30;101545.00;;;9.99;100.00
30421;BME280;17218;54.070;10.012;2022-09-12T03:28:58;101540.69;;;9.99;100.00
30421;BME280;17218;54.070;10.012;2022-09-12T03:31:27;101557.94;;;9.97;100.00
30421;BME280;17218;54.070;10.012;2022-09-12T03:33:53;101547.56;;;9.94;100.00
30421;BME280;17218;54.070;10.012;2022-09-12T03:36:23;101550.97;;;9.88;100.00
30421;BME280;17218;54.070;10.012;2022-09-12T03:38:50;101565.63;;;9.89;100.00
30421;BME280;17218;54.070;10.012;2022-09-12T03:41:17;101550.09;;;9.88;100.00
30421;BME280;17218;54.070;10.012;2022-09-12T03:43:43;101557.00;;;9.87;100.00
30421;BME280;17218;54.070;10.012;2022-09-12T03:46:10;101556.13;;;9.87;100.00
30421;BME280;17218;54.070;10.012;2022-09-12T03:48:37;101545.78;;;9.85;100.00
30421;BME280;17218;54.070;10.012;2022-09-12T03:51:06;101548.31;;;9.82;100.00
30421;BME280;17218;54.070;10.012;2022-09-12T03:53:35;101558.66;;;9.81;100.00
30421;BME280;17218;54.070;10.012;2022-09-12T03:56:04;101555.19;;;9.80;100.00
30421;BME280;17218;54.070;10.012;2022-09-12T03:58:31;101560.38;;;9.78;100.00
30421;BME280;17218;54.070;10.012;2022-09-12T04:00:58;101562.09;;;9.78;100.00
30421;BME280;17218;54.070;10.012;2022-09-12T04:03:24;101554.34;;;9.78;100.00
30421;BME280;17218;54.070;10.012;2022-09-12T04:05:51;101550.88;;;9.76;100.00
30421;BME280;17218;54.070;10.012;2022-09-12T04:08:17;101549.09;;;9.73;100.00
30421;BME280;17218;54.070;10.012;2022-09-12T04:10:45;101543.91;;;9.70;100.00
30421;BME280;17218;54.070;10.012;2022-09-12T04:13:11;101539.56;;;9.69;100.00
30421;BME280;17218;54.070;10.012;2022-09-12T04:15:38;101548.19;;;9.68;100.00
30421;BME280;17218;54.070;10.012;2022-09-12T04:18:04;101543.91;;;9.67;100.00
30421;BME280;17218;54.070;10.012;2022-09-12T04:20:31;101549.06;;;9.69;100.00
30421;BME280;17218;54.070;10.012;2022-09-12T04:22:57;101549.06;;;9.67;100.00
30421;BME280;17218;54.070;10.012;2022-09-12T04:25:24;101542.16;;;9.68;100.00
30421;BME280;17218;54.070;10.012;2022-09-12T04:27:53;101545.59;;;9.66;100.00
30421;BME280;17218;54.070;10.012;2022-09-12T04:30:20;101547.31;;;9.66;100.00
30421;BME280;17218;54.070;10.012;2022-09-12T04:32:46;101548.19;;;9.66;100.00
30421;BME280;17218;54.070;10.012;2022-09-12T04:35:13;101542.16;;;9.66;100.00
30421;BME280;17218;54.070;10.012;2022-09-12T04:37:39;101549.00;;;9.61;100.00
30421;BME280;17218;54.070;10.012;2022-09-12T04:40:07;101546.41;;;9.61;100.00
30421;BME280;17218;54.070;10.012;2022-09-12T04:42:33;101547.22;;;9.58;100.00
30421;BME280;17218;54.070;10.012;2022-09-12T04:45:02;101549.81;;;9.58;100.00
30421;BME280;17218;54.070;10.012;2022-09-12T04:47:30;101548.09;;;9.56;100.00
30421;BME280;17218;54.070;10.012;2022-09-12T04:49:56;101548.94;;;9.56;100.00
30421;BME280;17218;54.070;10.012;2022-09-12T04:52:23;101542.03;;;9.55;100.00
30421;BME280;17218;54.070;10.012;2022-09-12T04:54:49;101540.34;;;9.57;100.00
30421;BME280;17218;54.070;10.012;2022-09-12T04:57:17;101549.81;;;9.58;100.00
30421;BME280;17218;54.070;10.012;2022-09-12T04:59:43;101547.22;;;9.57;100.00
30421;BME280;17218;54.070;10.012;2022-09-12T05:02:11;101555.00;;;9.58;100.00
30421;BME280;17218;54.070;10.012;2022-09-12T05:04:38;101552.38;;;9.53;100.00
30421;BME280;17218;54.070;10.012;2022-09-12T05:07:04;101548.94;;;9.56;100.00
30421;BME280;17218;54.070;10.012;2022-09-12T05:09:31;101554.16;;;9.59;100.00
30421;BME280;17218;54.070;10.012;2022-09-12T05:11:57;101553.31;;;9.62;100.00
30421;BME280;17218;54.070;10.012;2022-09-12T05:14:25;101555.06;;;9.63;100.00
30421;BME280;17218;54.070;10.012;2022-09-12T05:16:51;101550.78;;;9.66;100.00
30421;BME280;17218;54.070;10.012;2022-09-12T05:19:19;101548.22;;;9.70;100.00
30421;BME280;17218;54.070;10.012;2022-09-12T05:21:45;101547.41;;;9.75;100.00
30421;BME280;17218;54.070;10.012;2022-09-12T05:24:12;101543.13;;;9.79;100.00
30421;BME280;17218;54.070;10.012;2022-09-12T05:26:38;101544.91;;;9.85;100.00
30421;BME280;17218;54.070;10.012;2022-09-12T05:29:05;101544.06;;;9.87;100.00
30421;BME280;17218;54.070;10.012;2022-09-12T05:31:32;101532.03;;;9.91;100.00
30421;BME280;17218;54.070;10.012;2022-09-12T05:33:58;101539.78;;;9.93;100.00
30421;BME280;17218;54.070;10.012;2022-09-12T05:36:28;101539.78;;;9.93;100.00
30421;BME280;17218;54.070;10.012;2022-09-12T05:38:55;101532.94;;;9.96;100.00
30421;BME280;17218;54.070;10.012;2022-09-12T05:41:23;101535.53;;;10.04;100.00
30421;BME280;17218;54.070;10.012;2022-09-12T05:43:51;101533.91;;;10.11;100.00
30421;BME280;17218;54.070;10.012;2022-09-12T05:46:20;101538.25;;;10.18;100.00
30421;BME280;17218;54.070;10.012;2022-09-12T05:48:48;101546.03;;;10.20;100.00
30421;BME280;17218;54.070;10.012;2022-09-12T05:51:16;101551.28;;;10.28;100.00
30421;BME280;17218;54.070;10.012;2022-09-12T05:53:47;101547.88;;;10.33;100.00
30421;BME280;17218;54.070;10.012;2022-09-12T05:56:16;101547.00;;;10.37;100.00
30421;BME280;17218;54.070;10.012;2022-09-12T05:58:44;101546.16;;;10.38;100.00
30421;BME280;17218;54.070;10.012;2022-09-12T06:01:13;101552.25;;;10.47;100.00
30421;BME280;17218;54.070;10.012;2022-09-12T06:03:42;101548.03;;;10.52;100.00
30421;BME280;17218;54.070;10.012;2022-09-12T06:06:10;101557.50;;;10.53;100.00
30421;BME280;17218;54.070;10.012;2022-09-12T06:08:39;101550.63;;;10.58;100.00
30421;BME280;17218;54.070;10.012;2022-09-12T06:11:08;101551.50;;;10.62;100.00
30421;BME280;17218;54.070;10.012;2022-09-12T06:13:37;101540.31;;;10.69;100.00
30421;BME280;17218;54.070;10.012;2022-09-12T06:16:06;101542.97;;;10.79;100.00
30421;BME280;17218;54.070;10.012;2022-09-12T06:18:34;101548.19;;;10.88;100.00
30421;BME280;17218;54.070;10.012;2022-09-12T06:21:02;101549.09;;;11.01;100.00
30421;BME280;17218;54.070;10.012;2022-09-12T06:23:28;101550.88;;;11.18;100.00
30421;BME280;17218;54.070;10.012;2022-09-12T06:25:55;101549.19;;;11.29;100.00
30421;BME280;17218;54.070;10.012;2022-09-12T06:28:23;101549.22;;;11.40;100.00
30421;BME280;17218;54.070;10.012;2022-09-12T06:30:49;101554.44;;;11.51;100.00
30421;BME280;17218;54.070;10.012;2022-09-12T06:33:16;101552.72;;;11.60;100.00
30421;BME280;17218;54.070;10.012;2022-09-12T06:35:43;101559.66;;;11.70;100.00
30421;BME280;17218;54.070;10.012;2022-09-12T06:38:09;101552.75;;;11.72;100.00
30421;BME280;17218;54.070;10.012;2022-09-12T06:40:40;101556.19;;;11.84;100.00
30421;BME280;17218;54.070;10.012;2022-09-12T06:43:08;101565.72;;;12.00;100.00
30421;BME280;17218;54.070;10.012;2022-09-12T06:45:36;101554.50;;;12.17;100.00
30421;BME280;17218;54.070;10.012;2022-09-12T06:48:02;101555.34;;;12.33;100.00
30421;BME280;17218;54.070;10.012;2022-09-12T06:50:30;101555.28;;;12.52;100.00
30421;BME280;17218;54.070;10.012;2022-09-12T06:52:56;101550.09;;;12.64;100.00
30421;BME280;17218;54.070;10.012;2022-09-12T06:55:23;101555.22;;;12.83;100.00
30421;BME280;17218;54.070;10.012;2022-09-12T06:57:49;101545.63;;;12.98;100.00
30421;BME280;17218;54.070;10.012;2022-09-12T07:00:16;101548.16;;;13.14;100.00
30421;BME280;17218;54.070;10.012;2022-09-12T07:02:44;101543.72;;;13.30;100.00
30421;BME280;17218;54.070;10.012;2022-09-12T07:05:11;101547.16;;;13.36;100.00
30421;BME280;17218;54.070;10.012;2022-09-12T07:07:38;101547.09;;;13.49;100.00
30421;BME280;17218;54.070;10.012;2022-09-12T07:10:05;101544.41;;;13.66;100.00
30421;BME280;17218;54.070;10.012;2022-09-12T07:12:31;101540.00;;;13.75;100.00
30421;BME280;17218;54.070;10.012;2022-09-12T07:14:58;101539.94;;;13.81;100.00
30421;BME280;17218;54.070;10.012;2022-09-12T07:17:25;101546.81;;;13.91;100.00
30421;BME280;17218;54.070;10.012;2022-09-12T07:19:53;101535.38;;;14.08;100.00
30421;BME280;17218;54.070;10.012;2022-09-12T07:22:19;101538.72;;;14.21;100.00
30421;BME280;17218;54.070;10.012;2022-09-12T07:24:46;101529.94;;;14.30;100.00
30421;BME280;17218;54.070;10.012;2022-09-12T07:27:12;101529.03;;;14.36;100.00
30421;BME280;17218;54.070;10.012;2022-09-12T07:29:39;101523.75;;;14.39;100.00
30421;BME280;17218;54.070;10.012;2022-09-12T07:32:05;101528.06;;;14.43;100.00
30421;BME280;17218;54.070;10.012;2022-09-12T07:34:32;101528.81;;;14.54;100.00
30421;BME280;17218;54.070;10.012;2022-09-12T07:37:00;101529.44;;;14.74;100.00
30421;BME280;17218;54.070;10.012;2022-09-12T07:39:27;101523.16;;;14.95;100.00
30421;BME280;17218;54.070;10.012;2022-09-12T07:41:53;101524.66;;;15.12;100.00
30421;BME280;17218;54.070;10.012;2022-09-12T07:44:20;101516.69;;;15.23;100.00
30421;BME280;17218;54.070;10.012;2022-09-12T07:46:47;101513.06;;;15.32;100.00
30421;BME280;17218;54.070;10.012;2022-09-12T07:49:14;101515.50;;;15.46;100.00
30421;BME280;17218;54.070;10.012;2022-09-12T07:51:41;101516.94;;;15.64;100.00
30421;BME280;17218;54.070;10.012;2022-09-12T07:54:09;101520.31;;;15.71;100.00
30421;BME280;17218;54.070;10.012;2022-09-12T07:56:36;101510.59;;;15.79;100.00
30421;BME280;17218;54.070;10.012;2022-09-12T07:59:02;101516.53;;;15.89;100.00
30421;BME280;17218;54.070;10.012;2022-09-12T08:01:29;101510.38;;;15.93;100.00
30421;BME280;17218;54.070;10.012;2022-09-12T08:03:57;101509.28;;;16.07;100.00
30421;BME280;17218;54.070;10.012;2022-09-12T08:06:25;101507.31;;;16.18;100.00
30421;BME280;17218;54.070;10.012;2022-09-12T08:08:54;101490.63;;;16.26;100.00
30421;BME280;17218;54.070;10.012;2022-09-12T08:11:23;101491.22;;;16.42;100.00
30421;BME280;17218;54.070;10.012;2022-09-12T08:13:50;101487.66;;;16.44;100.00
30421;BME280;17218;54.070;10.012;2022-09-12T08:16:18;101487.28;;;16.63;100.00
30421;BME280;17218;54.070;10.012;2022-09-12T08:18:46;101491.41;;;16.74;100.00
30421;BME280;17218;54.070;10.012;2022-09-12T08:21:14;101486.53;;;16.99;100.00
30421;BME280;17218;54.070;10.012;2022-09-12T08:23:41;101488.59;;;17.24;100.00
30421;BME280;17218;54.070;10.012;2022-09-12T08:26:09;101492.44;;;17.47;100.00
30421;BME280;17218;54.070;10.012;2022-09-12T08:28:38;101485.00;;;17.65;100.00
30421;BME280;17218;54.070;10.012;2022-09-12T08:31:07;101483.47;;;17.91;100.00
30421;BME280;17218;54.070;10.012;2022-09-12T08:33:34;101473.97;;;17.87;100.00
30421;BME280;17218;54.070;10.012;2022-09-12T08:36:04;101475.16;;;18.08;100.00
30421;BME280;17218;54.070;10.012;2022-09-12T08:38:31;101467.09;;;18.18;100.00
30421;BME280;17218;54.070;10.012;2022-09-12T08:41:03;101468.31;;;18.36;100.00
30421;BME280;17218;54.070;10.012;2022-09-12T08:43:45;101458.69;;;18.36;100.00
30421;BME280;17218;54.070;10.012;2022-09-12T08:46:17;101464.47;;;18.48;100.00
30421;BME280;17218;54.070;10.012;2022-09-12T08:48:48;101460.19;;;18.45;100.00
30421;BME280;17218;54.070;10.012;2022-09-12T08:51:16;101462.50;;;18.56;100.00
30421;BME280;17218;54.070;10.012;2022-09-12T08:53:46;101454.03;;;18.77;100.00
30421;BME280;17218;54.070;10.012;2022-09-12T08:56:15;101454.81;;;18.79;100.00
30421;BME280;17218;54.070;10.012;2022-09-12T08:58:44;101460.31;;;18.71;100.00
30421;BME280;17218;54.070;10.012;2022-09-12T09:01:19;101466.19;;;18.79;100.00
30421;BME280;17218;54.070;10.012;2022-09-12T09:04:12;101456.38;;;18.86;100.00
30421;BME280;17218;54.070;10.012;2022-09-12T09:06:56;101453.41;;;18.97;100.00
30421;BME280;17218;54.070;10.012;2022-09-12T09:09:35;101452.81;;;19.17;100.00
30421;BME280;17218;54.070;10.012;2022-09-12T09:12:13;101454.00;;;19.05;100.00
30421;BME280;17218;54.070;10.012;2022-09-12T09:15:00;101454.25;;;18.98;100.00
30421;BME280;17218;54.070;10.012;2022-09-12T09:17:31;101456.88;;;18.98;100.00
30421;BME280;17218;54.070;10.012;2022-09-12T09:20:04;101450.19;;;19.16;100.00
30421;BME280;17218;54.070;10.012;2022-09-12T09:22:40;101439.22;;;19.31;100.00
30421;BME280;17218;54.070;10.012;2022-09-12T09:25:14;101441.16;;;19.52;100.00
30421;BME280;17218;54.070;10.012;2022-09-12T09:27:46;101439.47;;;19.76;100.00
30421;BME280;17218;54.070;10.012;2022-09-12T09:30:17;101441.59;;;19.90;100.00
30421;BME280;17218;54.070;10.012;2022-09-12T09:32:48;101437.16;;;19.93;100.00
30421;BME280;17218;54.070;10.012;2022-09-12T09:35:20;101439.91;;;19.88;100.00
30421;BME280;17218;54.070;10.012;2022-09-12T09:38:00;101427.75;;;19.85;100.00
30421;BME280;17218;54.070;10.012;2022-09-12T09:40:36;101422.19;;;19.95;100.00
30421;BME280;17218;54.070;10.012;2022-09-12T09:43:15;101422.69;;;20.06;100.00
30421;BME280;17218;54.070;10.012;2022-09-12T09:45:45;101430.13;;;20.19;100.00
30421;BME280;17218;54.070;10.012;2022-09-12T09:48:16;101422.16;;;20.20;100.00
30421;BME280;17218;54.070;10.012;2022-09-12T09:50:45;101430.84;;;20.22;100.00
30421;BME280;17218;54.070;10.012;2022-09-12T09:53:23;101420.72;;;20.35;100.00
30421;BME280;17218;54.070;10.012;2022-09-12T09:55:52;101429.91;;;20.47;100.00
30421;BME280;17218;54.070;10.012;2022-09-12T09:58:28;101418.50;;;20.48;100.00
30421;BME280;17218;54.070;10.012;2022-09-12T10:00:59;101417.72;;;20.69;100.00
30421;BME280;17218;54.070;10.012;2022-09-12T10:03:30;101419.03;;;20.57;100.00
30421;BME280;17218;54.070;10.012;2022-09-12T10:05:59;101418.81;;;20.63;100.00
30421;BME280;17218;54.070;10.012;2022-09-12T10:08:28;101428.53;;;20.61;100.00
30421;BME280;17218;54.070;10.012;2022-09-12T10:10:57;101420.50;;;20.64;100.00
30421;BME280;17218;54.070;10.012;2022-09-12T10:13:33;101420.50;;;20.86;100.00
30421;BME280;17218;54.070;10.012;2022-09-12T10:16:03;101423.69;;;20.96;100.00
30421;BME280;17218;54.070;10.012;2022-09-12T10:18:37;101426.09;;;21.01;100.00
30421;BME280;17218;54.070;10.012;2022-09-12T10:21:26;101429.47;;;21.05;100.00
30421;BME280;17218;54.070;10.012;2022-09-12T10:23:59;101410.03;;;21.30;100.00
30421;BME280;17218;54.070;10.012;2022-09-12T10:26:31;101415.44;;;21.48;100.00
30421;BME280;17218;54.070;10.012;2022-09-12T10:29:03;101413.59;;;21.71;100.00
30421;BME280;17218;54.070;10.012;2022-09-12T10:31:39;101409.22;;;21.69;100.00
30421;BME280;17218;54.070;10.012;2022-09-12T10:34:19;101411.06;;;21.88;100.00
30421;BME280;17218;54.070;10.012;2022-09-12T10:36:47;101403.53;;;22.00;100.00
30421;BME280;17218;54.070;10.012;2022-09-12T10:39:17;101407.34;;;22.13;100.00
30421;BME280;17218;54.070;10.012;2022-09-12T10:41:44;101414.88;;;22.02;100.00
30421;BME280;17218;54.070;10.012;2022-09-12T10:44:14;101407.03;;;21.79;100.00
30421;BME280;17218;54.070;10.012;2022-09-12T10:46:43;101408.16;;;21.74;100.00
30421;BME280;17218;54.070;10.012;2022-09-12T10:49:28;101402.91;;;21.74;100.00
30421;BME280;17218;54.070;10.012;2022-09-12T10:51:56;101400.47;;;21.69;100.00
30421;BME280;17218;54.070;10.012;2022-09-12T10:54:26;101402.69;;;21.78;100.00
30421;BME280;17218;54.070;10.012;2022-09-12T10:57:27;101399.88;;;21.83;100.00
30421;BME280;17218;54.070;10.012;2022-09-12T11:00:06;101388.44;;;22.03;100.00
30421;BME280;17218;54.070;10.012;2022-09-12T11:02:49;101384.94;;;22.22;100.00
30421;BME280;17218;54.070;10.012;2022-09-12T11:05:25;101390.41;;;22.17;100.00
30421;BME280;17218;54.070;10.012;2022-09-12T11:08:08;101381.66;;;22.17;100.00
30421;BME280;17218;54.070;10.012;2022-09-12T11:10:42;101384.91;;;22.42;100.00
30421;BME280;17218;54.070;10.012;2022-09-12T11:13:18;101384.91;;;22.61;100.00
30421;BME280;17218;54.070;10.012;2022-09-12T11:16:00;101377.81;;;22.81;99.99
30421;BME280;17218;54.070;10.012;2022-09-12T11:18:43;101379.72;;;23.32;100.00
30421;BME280;17218;54.070;10.012;2022-09-12T11:21:27;101374.38;;;23.67;100.00
30421;BME280;17218;54.070;10.012;2022-09-12T11:24:15;101366.16;;;24.06;90.49
30421;BME280;17218;54.070;10.012;2022-09-12T11:27:04;101363.72;;;24.51;84.05
30421;BME280;17218;54.070;10.012;2022-09-12T11:29:47;101363.88;;;24.64;82.36
30421;BME280;17218;54.070;10.012;2022-09-12T11:35:18;101361.66;;;24.57;85.51
30421;BME280;17218;54.070;10.012;2022-09-12T11:38:11;101359.78;;;24.26;80.39
30421;BME280;17218;54.070;10.012;2022-09-12T11:40:43;101355.22;;;23.80;86.44
30421;BME280;17218;54.070;10.012;2022-09-12T11:43:21;101368.69;;;23.06;91.17
30421;BME280;17218;54.070;10.012;2022-09-12T11:45:49;101368.84;;;23.20;90.66
30421;BME280;17218;54.070;10.012;2022-09-12T11:48:33;101359.50;;;22.78;90.35
30421;BME280;17218;54.070;10.012;2022-09-12T11:51:10;101362.00;;;22.61;90.80
30421;BME280;17218;54.070;10.012;2022-09-12T11:53:41;101359.72;;;22.73;95.85
30421;BME280;17218;54.070;10.012;2022-09-12T11:56:13;101353.44;;;23.11;94.20
30421;BME280;17218;54.070;10.012;2022-09-12T11:58:43;101345.09;;;23.54;89.54
30421;BME280;17218;54.070;10.012;2022-09-12T12:01:14;101354.75;;;23.55;89.52
30421;BME280;17218;54.070;10.012;2022-09-12T12:03:45;101349.41;;;23.89;94.93
30421;BME280;17218;54.070;10.012;2022-09-12T12:06:16;101352.91;;;23.74;86.48
30421;BME280;17218;54.070;10.012;2022-09-12T12:08:45;101339.59;;;23.91;90.12
30421;BME280;17218;54.070;10.012;2022-09-12T12:11:13;101347.66;;;24.54;86.06
30421;BME280;17218;54.070;10.012;2022-09-12T12:13:46;101339.53;;;25.19;83.17
30421;BME280;17218;54.070;10.012;2022-09-12T12:16:21;101331.88;;;25.58;76.53
30421;BME280;17218;54.070;10.012;2022-09-12T12:18:52;101320.91;;;25.65;73.54
30421;BME280;17218;54.070;10.012;2022-09-12T12:21:36;101323.84;;;25.75;68.81
30421;BME280;17218;54.070;10.012;2022-09-12T12:24:13;101327.78;;;26.11;67.48
30421;BME280;17218;54.070;10.012;2022-09-12T12:26:53;101327.69;;;26.40;64.58
30421;BME280;17218;54.070;10.012;2022-09-12T12:29:40;101320.53;;;26.55;64.06
30421;BME280;17218;54.070;10.012;2022-09-12T12:32:21;101313.88;;;27.02;57.81
30421;BME280;17218;54.070;10.012;2022-09-12T12:34:48;101313.78;;;26.90;55.66
30421;BME280;17218;54.070;10.012;2022-09-12T12:37:47;101320.97;;;26.62;63.94
30421;BME280;17218;54.070;10.012;2022-09-12T12:40:21;101317.25;;;26.78;61.31
30421;BME280;17218;54.070;10.012;2022-09-12T12:43:01;101310.72;;;26.56;61.82
30421;BME280;17218;54.070;10.012;2022-09-12T12:46:05;101304.47;;;26.29;61.04
30421;BME280;17218;54.070;10.012;2022-09-12T12:48:43;101305.69;;;26.38;61.41
30421;BME280;17218;54.070;10.012;2022-09-12T12:51:28;101296.28;;;26.60;61.82
30421;BME280;17218;54.070;10.012;2022-09-12T12:53:56;101299.09;;;26.85;58.92
30421;BME280;17218;54.070;10.012;2022-09-12T12:56:33;101298.75;;;27.81;54.15